Airfield :
LOGIN :

Register | Disclaimer

   EN    FR    IT 

 










Legend :    VFR   Marginal VFR   IFR   Intensive IFR   Very Intensive IFR
Visi :
Ceiling :
>= 8 km
>= 3000ft
5 to 8 km
1000 to 3000 ft
1500m to 5 km
500 to 1000 ft
800 to 1500m
200 to 500 ft
< 800m
< 200 ft
Symbols :   Thunderstorms  Fog  Heavy snow  Heavy precipitations  Wind > 20 kt
SIGMETs :     Misc.  Thunderstorms  Icing  Turbulence  Mountain Waves  Volcanic Ashes







- Airport Elevation : 154 ft
- IATA code : SZZ


EPSC - Szczecin Goleniow

CURRENT METAR :
  • 241530Z 32007KT CAVOK 08/M01 Q1022

EXPIRED METARs :
  • 241500Z 32006KT 280V360 CAVOK 08/00 Q1022
  • 241430Z 30008KT CAVOK 08/M01 Q1022
  • 241400Z 30006KT CAVOK 08/M01 Q1022
  • 241330Z 31006KT 270V340 CAVOK 08/M00 Q1023
  • 241300Z 25005KT 190V310 CAVOK 08/00 Q1023

TAF TAF EPSC
Valid from the 24 at 12:00 until the 25 at 12:00 UTC


241130Z 2412/2512 28003KT 9999 SCT030
BECMG 2505/2507 22010KT 4000 RA BKN006 BKN012
TEMPO 2506/2509 2000 RASN BR BKN003
No reported NOTAMs for that airfield.



MET'MAP, your aeronautical weather chart ! - Copyright ORBIFLY December 2007 - Disclaimer

ORBIFLY MET'MAP TEAM :

Programming & Development : Alexandra Zaïnal
Concept & Development : Baudouin d'Aumeries
Co-Development & Prog : Marc-Olivier Méhu
Technical & hardware support : Manuel Goepfert

Contact : metmap@orbifly.com




SOURCES & CREDITS :

   NOAA